Time;durP1;ratioP1;P1;durP2;ratioP2;P2;SDS_P1;SDS_P2;PMS_P1;PMS_P2;Temp;Humidity;BMP_temperature;BMP_pressure;BME280_temperature;BME280_humidity;BME280_pressure;Samples;Min_cycle;Max_cycle;Signal;HPM_P1;HPM_P2
2021/03/28 00:02:19;;;;;;;26.52;6.32;;;;;;;;;;5010071;28;20037;-68
2021/03/28 00:04:47;;;;;;;21.55;5.57;;;;;;;;;;5008929;28;20034;-68
2021/03/28 00:07:12;;;;;;;25.52;5.50;;;;;;;;;;5006517;28;20097;-68
2021/03/28 00:09:38;;;;;;;18.40;5.93;;;;;;;;;;5010198;28;20406;-67
2021/03/28 00:12:06;;;;;;;19.80;4.60;;;;;;;;;;5010217;28;20032;-68
2021/03/28 00:14:45;;;;;;;13.45;4.70;;;;;;;;;;5010449;28;20105;-68
2021/03/28 00:17:20;;;;;;;17.73;6.43;;;;;;;;;;5010299;28;20030;-68
2021/03/28 00:20:00;;;;;;;12.05;4.85;;;;;;;;;;5010017;28;20014;-68
2021/03/28 00:22:29;;;;;;;17.80;5.68;;;;;;;;;;5007335;28;20112;-68
2021/03/28 00:24:57;;;;;;;15.63;5.18;;;;;;;;;;5002796;28;20123;-67
2021/03/28 00:27:26;;;;;;;20.40;6.18;;;;;;;;;;5007790;28;20044;-67
2021/03/28 00:29:54;;;;;;;18.67;6.85;;;;;;;;;;5000517;28;20040;-67
2021/03/28 00:32:21;;;;;;;20.27;5.43;;;;;;;;;;5008090;28;20111;-67
2021/03/28 00:34:49;;;;;;;18.75;5.10;;;;;;;;;;5009004;28;20018;-68
2021/03/28 00:37:23;;;;;;;20.40;6.20;;;;;;;;;;5009328;28;20478;-68
2021/03/28 00:39:53;;;;;;;23.67;5.95;;;;;;;;;;5009301;28;20097;-68
2021/03/28 00:42:26;;;;;;;15.65;4.75;;;;;;;;;;5009810;28;20026;-67
2021/03/28 00:44:53;;;;;;;19.92;4.93;;;;;;;;;;5010190;28;20389;-67
2021/03/28 00:47:20;;;;;;;17.73;5.15;;;;;;;;;;5010169;28;20069;-67
2021/03/28 00:49:46;;;;;;;17.15;4.90;;;;;;;;;;5009880;28;20132;-68
2021/03/28 00:52:14;;;;;;;20.52;5.70;;;;;;;;;;4999403;28;20022;-68
2021/03/28 00:54:40;;;;;;;22.55;5.95;;;;;;;;;;5006910;28;20490;-67
2021/03/28 00:57:14;;;;;;;18.90;5.00;;;;;;;;;;5009485;28;20025;-67
2021/03/28 01:00:09;;;;;;;23.98;5.47;;;;;;;;;;5011145;28;20026;-66
2021/03/28 01:02:39;;;;;;;14.48;5.25;;;;;;;;;;5008695;28;20087;-68
2021/03/28 01:05:11;;;;;;;23.13;4.00;;;;;;;;;;5013636;28;20022;-66
2021/03/28 01:07:55;;;;;;;17.58;4.20;;;;;;;;;;4994344;28;20030;-67
2021/03/28 01:10:52;;;;;;;19.92;4.70;;;;;;;;;;5011217;28;20030;-68
2021/03/28 01:13:36;;;;;;;15.02;3.50;;;;;;;;;;4992719;28;20049;-68
2021/03/28 01:16:01;;;;;;;14.30;4.10;;;;;;;;;;5005244;28;20148;-68
2021/03/28 01:18:50;;;;;;;11.95;4.32;;;;;;;;;;5012994;28;20109;-67
2021/03/28 01:21:18;;;;;;;25.05;3.97;;;;;;;;;;5011119;28;20026;-68
2021/03/28 01:23:44;;;;;;;11.20;3.58;;;;;;;;;;5011878;28;20071;-67
2021/03/28 01:26:12;;;;;;;23.15;5.07;;;;;;;;;;5012975;28;20093;-67
2021/03/28 01:28:46;;;;;;;15.93;3.95;;;;;;;;;;5012725;28;20018;-67
2021/03/28 01:31:29;;;;;;;6.85;2.20;;;;;;;;;;4997649;28;20026;-67
2021/03/28 01:34:04;;;;;;;18.65;3.47;;;;;;;;;;5012049;28;20378;-67
2021/03/28 01:36:45;;;;;;;18.02;4.00;;;;;;;;;;5006809;28;20033;-68
2021/03/28 01:39:13;;;;;;;20.67;4.03;;;;;;;;;;5012191;28;20018;-68
2021/03/28 01:41:41;;;;;;;14.73;3.88;;;;;;;;;;5011026;28;20018;-67
2021/03/28 01:44:06;;;;;;;16.60;3.95;;;;;;;;;;5012507;28;20026;-67
2021/03/28 01:46:31;;;;;;;18.38;3.45;;;;;;;;;;5012273;28;20168;-68
2021/03/28 01:48:58;;;;;;;11.60;3.70;;;;;;;;;;5012361;28;20379;-68
2021/03/28 01:51:23;;;;;;;15.93;4.35;;;;;;;;;;5011845;28;20272;-67
2021/03/28 01:54:02;;;;;;;17.33;3.45;;;;;;;;;;5012961;28;20026;-68
2021/03/28 01:56:36;;;;;;;18.00;3.65;;;;;;;;;;4999125;28;20305;-68
2021/03/28 01:59:07;;;;;;;13.48;4.03;;;;;;;;;;5007361;28;20021;-68
2021/03/28 02:01:48;;;;;;;21.10;3.55;;;;;;;;;;5010640;28;20018;-68
2021/03/28 02:04:17;;;;;;;18.25;4.95;;;;;;;;;;5012523;28;20022;-68
2021/03/28 02:07:00;;;;;;;10.48;2.72;;;;;;;;;;5011817;28;20462;-68
2021/03/28 02:09:33;;;;;;;15.15;2.38;;;;;;;;;;5011712;28;20026;-68
2021/03/28 02:12:01;;;;;;;22.15;3.80;;;;;;;;;;5012329;28;20022;-68
2021/03/28 02:14:36;;;;;;;15.45;3.65;;;;;;;;;;5012118;28;20552;-68
2021/03/28 02:17:03;;;;;;;25.27;4.07;;;;;;;;;;4993201;28;20030;-68
2021/03/28 02:19:34;;;;;;;15.50;3.00;;;;;;;;;;5010603;28;20013;-68
2021/03/28 02:22:15;;;;;;;20.80;3.55;;;;;;;;;;5012503;28;20451;-67
2021/03/28 02:24:44;;;;;;;19.35;3.28;;;;;;;;;;5010369;28;20022;-67
2021/03/28 02:27:27;;;;;;;22.77;3.30;;;;;;;;;;5059445;22;20052;-61
2021/03/28 02:30:11;;;;;;;11.68;2.42;;;;;;;;;;5028460;28;20033;-61
2021/03/28 02:32:36;;;;;;;16.20;2.83;;;;;;;;;;5037511;28;20063;-62
2021/03/28 02:35:07;;;;;;;21.25;4.00;;;;;;;;;;5034815;28;20059;-62
2021/03/28 02:37:51;;;;;;;17.35;2.35;;;;;;;;;;5043792;28;20271;-62
2021/03/28 02:40:19;;;;;;;22.27;2.78;;;;;;;;;;5036678;28;20021;-62
2021/03/28 02:42:53;;;;;;;11.48;3.25;;;;;;;;;;5031958;28;20028;-62
2021/03/28 02:45:26;;;;;;;11.43;3.20;;;;;;;;;;5031635;28;20022;-61
2021/03/28 02:48:10;;;;;;;17.63;3.67;;;;;;;;;;5031083;28;20025;-62
2021/03/28 02:50:54;;;;;;;12.63;2.63;;;;;;;;;;5030844;28;20036;-62
2021/03/28 02:53:34;;;;;;;18.27;2.95;;;;;;;;;;5012267;28;20026;-62
2021/03/28 02:56:03;;;;;;;12.35;2.53;;;;;;;;;;5031970;28;20370;-62
2021/03/28 02:58:40;;;;;;;11.85;2.38;;;;;;;;;;5030985;28;20022;-62
2021/03/28 03:01:11;;;;;;;11.75;2.53;;;;;;;;;;5034901;28;20500;-63
2021/03/28 03:03:45;;;;;;;18.70;4.03;;;;;;;;;;5049428;28;20029;-62
2021/03/28 03:06:29;;;;;;;5.85;2.30;;;;;;;;;;5043045;28;20111;-61
2021/03/28 03:09:13;;;;;;;13.68;3.10;;;;;;;;;;5038959;28;20094;-61
2021/03/28 03:11:53;;;;;;;6.50;1.52;;;;;;;;;;5031284;28;20017;-62
2021/03/28 03:14:28;;;;;;;20.23;3.20;;;;;;;;;;5045969;28;20516;-62
2021/03/28 03:17:12;;;;;;;10.27;2.22;;;;;;;;;;5045519;28;20029;-62
2021/03/28 03:19:40;;;;;;;11.05;2.28;;;;;;;;;;5035605;28;20021;-62
2021/03/28 03:22:11;;;;;;;15.38;2.42;;;;;;;;;;5041376;28;20032;-62
2021/03/28 03:24:52;;;;;;;16.17;2.88;;;;;;;;;;5042731;28;20071;-62
2021/03/28 03:27:36;;;;;;;18.35;2.95;;;;;;;;;;5030432;28;20021;-62
2021/03/28 03:30:19;;;;;;;20.23;2.70;;;;;;;;;;5030597;28;20037;-62
2021/03/28 03:32:47;;;;;;;9.80;2.17;;;;;;;;;;5037566;28;20029;-62
2021/03/28 03:35:31;;;;;;;14.77;3.38;;;;;;;;;;5037301;28;20381;-62
2021/03/28 03:38:14;;;;;;;13.15;2.42;;;;;;;;;;5033809;28;20018;-61
2021/03/28 03:40:40;;;;;;;7.00;2.35;;;;;;;;;;5032026;28;20063;-62
2021/03/28 03:43:24;;;;;;;18.77;3.38;;;;;;;;;;5041095;28;20029;-62
2021/03/28 03:45:57;;;;;;;18.60;3.50;;;;;;;;;;5041924;28;20025;-61
2021/03/28 03:48:41;;;;;;;9.40;1.80;;;;;;;;;;5023583;28;20503;-62
2021/03/28 03:51:09;;;;;;;12.98;2.72;;;;;;;;;;5047154;28;20036;-61
2021/03/28 03:53:43;;;;;;;10.95;1.65;;;;;;;;;;5027128;28;20039;-62
2021/03/28 03:56:20;;;;;;;21.60;3.03;;;;;;;;;;5029771;28;20017;-61
2021/03/28 03:59:04;;;;;;;8.20;1.75;;;;;;;;;;5029969;28;20112;-62
2021/03/28 04:01:36;;;;;;;6.53;1.63;;;;;;;;;;5023090;28;20021;-62
2021/03/28 04:04:06;;;;;;;8.73;2.17;;;;;;;;;;5029992;28;20033;-61
2021/03/28 04:06:50;;;;;;;15.95;3.72;;;;;;;;;;5034456;28;20022;-62
2021/03/28 04:09:24;;;;;;;10.48;1.50;;;;;;;;;;5031433;28;20025;-63
2021/03/28 04:11:52;;;;;;;14.73;3.38;;;;;;;;;;5033243;28;20505;-61
2021/03/28 04:14:36;;;;;;;4.30;1.83;;;;;;;;;;5050261;28;20029;-62
2021/03/28 04:17:19;;;;;;;13.10;2.13;;;;;;;;;;5040920;28;20025;-62
2021/03/28 04:19:54;;;;;;;11.57;1.92;;;;;;;;;;5022472;28;20396;-62
2021/03/28 04:22:37;;;;;;;11.95;2.38;;;;;;;;;;5036441;28;20061;-62
2021/03/28 04:25:11;;;;;;;4.47;1.88;;;;;;;;;;5041809;28;20495;-62
2021/03/28 04:27:55;;;;;;;5.80;1.67;;;;;;;;;;5050234;28;20036;-61
2021/03/28 04:30:33;;;;;;;11.20;2.53;;;;;;;;;;5032296;28;20371;-62
2021/03/28 04:32:59;;;;;;;12.55;2.33;;;;;;;;;;5037660;28;20044;-62
2021/03/28 04:35:31;;;;;;;13.73;2.85;;;;;;;;;;5048214;28;20404;-62
2021/03/28 04:37:57;;;;;;;6.40;1.73;;;;;;;;;;5037021;28;20351;-62
2021/03/28 04:40:25;;;;;;;11.05;4.03;;;;;;;;;;5036780;28;20017;-62
2021/03/28 04:43:09;;;;;;;9.95;2.25;;;;;;;;;;5030876;28;20112;-62
2021/03/28 04:45:34;;;;;;;8.95;2.05;;;;;;;;;;5033134;28;20026;-61
2021/03/28 04:48:05;;;;;;;12.57;2.88;;;;;;;;;;5033382;28;20026;-62
2021/03/28 04:50:30;;;;;;;12.30;2.10;;;;;;;;;;5044644;28;20405;-62
2021/03/28 04:53:15;;;;;;;9.37;2.10;;;;;;;;;;5039148;28;20104;-61
2021/03/28 04:55:40;;;;;;;11.73;2.35;;;;;;;;;;5033374;28;20314;-61
2021/03/28 04:58:28;;;;;;;12.43;2.47;;;;;;;;;;5033326;28;20100;-62
2021/03/28 05:01:00;;;;;;;8.35;2.53;;;;;;;;;;5023738;28;20687;-61
2021/03/28 05:03:25;;;;;;;14.85;2.72;;;;;;;;;;5033702;28;20095;-62
2021/03/28 05:06:05;;;;;;;14.68;3.13;;;;;;;;;;5032604;28;20450;-62
2021/03/28 05:08:30;;;;;;;;;;;;;;;;;;5046517;28;20096;-62
2021/03/28 05:11:14;;;;;;;9.27;2.30;;;;;;;;;;5034236;28;20004;-62
2021/03/28 05:13:58;;;;;;;6.72;2.10;;;;;;;;;;5030595;28;20049;-62
2021/03/28 05:16:41;;;;;;;10.32;2.47;;;;;;;;;;5013594;28;20029;-62
2021/03/28 05:19:12;;;;;;;13.27;3.13;;;;;;;;;;5023371;28;20033;-62
2021/03/28 05:21:58;;;;;;;10.45;2.63;;;;;;;;;;5034503;28;20029;-62
2021/03/28 05:24:35;;;;;;;10.98;2.20;;;;;;;;;;5020001;28;20037;-62
2021/03/28 05:27:03;;;;;;;6.75;2.20;;;;;;;;;;5035224;28;20021;-62
2021/03/28 05:29:41;;;;;;;9.32;2.33;;;;;;;;;;5039984;28;20025;-62
2021/03/28 05:32:25;;;;;;;8.32;2.33;;;;;;;;;;5033036;28;20026;-62
2021/03/28 05:34:56;;;;;;;11.05;2.00;;;;;;;;;;5036068;28;20140;-62
2021/03/28 05:37:39;;;;;;;22.58;3.45;;;;;;;;;;5030140;28;20485;-62
2021/03/28 05:40:13;;;;;;;20.42;2.90;;;;;;;;;;5033563;28;20098;-62
2021/03/28 05:42:48;;;;;;;11.40;2.67;;;;;;;;;;5034240;28;20025;-62
2021/03/28 05:45:25;;;;;;;5.03;1.27;;;;;;;;;;5036529;28;20021;-62
2021/03/28 05:48:06;;;;;;;5.45;1.17;;;;;;;;;;5031860;28;20030;-62
2021/03/28 05:50:37;;;;;;;2.50;0.90;;;;;;;;;;5032753;28;20025;-62
2021/03/28 05:53:08;;;;;;;7.90;2.58;;;;;;;;;;5032314;28;20432;-62
2021/03/28 05:55:48;;;;;;;9.35;1.98;;;;;;;;;;5031943;28;20494;-62
2021/03/28 05:58:17;;;;;;;3.85;1.05;;;;;;;;;;5039611;28;20036;-62
2021/03/28 06:00:51;;;;;;;2.45;1.17;;;;;;;;;;5032266;28;20482;-61
2021/03/28 06:03:19;;;;;;;11.82;2.97;;;;;;;;;;5031965;28;20462;-61
2021/03/28 06:06:04;;;;;;;5.22;1.73;;;;;;;;;;5032687;28;20029;-61
2021/03/28 06:08:47;;;;;;;8.50;1.75;;;;;;;;;;5032015;28;20075;-62
2021/03/28 06:11:31;;;;;;;14.73;1.85;;;;;;;;;;5042654;28;20021;-61
2021/03/28 06:14:15;;;;;;;4.78;1.52;;;;;;;;;;5031804;28;20032;-62
2021/03/28 06:16:59;;;;;;;9.73;2.08;;;;;;;;;;5027892;28;20022;-62
2021/03/28 06:19:30;;;;;;;14.50;3.05;;;;;;;;;;5031417;28;20026;-62
2021/03/28 06:22:07;;;;;;;12.10;1.83;;;;;;;;;;5030283;28;20025;-62
2021/03/28 06:24:51;;;;;;;9.98;2.40;;;;;;;;;;5029617;28;20048;-61
2021/03/28 06:27:16;;;;;;;11.15;1.30;;;;;;;;;;5032101;28;20022;-62
2021/03/28 06:30:17;;;;;;;8.00;1.90;;;;;;;;;;5031172;28;20104;-61
2021/03/28 06:33:01;;;;;;;10.60;2.47;;;;;;;;;;5005122;28;20841;-61
2021/03/28 06:35:55;;;;;;;13.18;2.40;;;;;;;;;;5026226;28;20029;-62
2021/03/28 06:38:29;;;;;;;19.42;1.50;;;;;;;;;;5016094;28;20030;-62
2021/03/28 06:41:13;;;;;;;20.20;2.25;;;;;;;;;;5031761;28;20021;-61
2021/03/28 06:43:38;;;;;;;7.28;1.40;;;;;;;;;;5030379;28;20032;-62
2021/03/28 06:46:20;;;;;;;12.63;1.83;;;;;;;;;;5031453;28;20025;-62
2021/03/28 06:49:00;;;;;;;10.90;1.55;;;;;;;;;;5028812;28;20307;-61
2021/03/28 06:51:28;;;;;;;12.77;2.05;;;;;;;;;;5046360;28;20029;-61
2021/03/28 06:53:59;;;;;;;4.35;1.77;;;;;;;;;;5049480;28;20498;-62
2021/03/28 06:56:33;;;;;;;8.52;2.55;;;;;;;;;;5043143;28;20065;-62
2021/03/28 06:58:58;;;;;;;14.07;2.10;;;;;;;;;;5042381;28;20035;-62
2021/03/28 07:01:23;;;;;;;8.33;1.60;;;;;;;;;;5036616;28;20400;-62
2021/03/28 07:04:07;;;;;;;10.10;2.95;;;;;;;;;;5033011;28;20271;-62
2021/03/28 07:06:51;;;;;;;3.83;1.00;;;;;;;;;;5051373;28;20025;-62
2021/03/28 07:09:35;;;;;;;13.77;2.63;;;;;;;;;;5038023;28;20021;-62
2021/03/28 07:12:03;;;;;;;14.93;2.22;;;;;;;;;;5037361;28;20035;-62
2021/03/28 07:14:38;;;;;;;9.32;1.55;;;;;;;;;;5032878;28;20017;-61
2021/03/28 07:17:21;;;;;;;6.75;1.75;;;;;;;;;;5030505;28;20021;-62
2021/03/28 07:19:58;;;;;;;8.88;1.88;;;;;;;;;;5043363;28;20021;-62
2021/03/28 07:22:31;;;;;;;5.00;1.17;;;;;;;;;;5037551;28;20104;-62
2021/03/28 07:25:24;;;;;;;10.50;1.83;;;;;;;;;;5031052;28;20600;-62
2021/03/28 07:28:17;;;;;;;17.45;2.00;;;;;;;;;;5029654;28;20033;-62
2021/03/28 07:31:02;;;;;;;3.45;1.20;;;;;;;;;;5033328;28;20148;-62
2021/03/28 07:33:42;;;;;;;5.45;1.65;;;;;;;;;;5031053;28;20053;-62
2021/03/28 07:36:32;;;;;;;8.45;1.55;;;;;;;;;;5043996;28;20111;-62
2021/03/28 07:39:28;;;;;;;6.45;2.03;;;;;;;;;;5048999;28;20079;-62
2021/03/28 07:41:59;;;;;;;15.00;2.80;;;;;;;;;;5033964;28;20049;-61
2021/03/28 07:44:30;;;;;;;4.38;1.45;;;;;;;;;;5030751;28;20045;-63
2021/03/28 07:47:20;;;;;;;5.82;1.52;;;;;;;;;;5031617;28;20032;-62
2021/03/28 07:50:04;;;;;;;12.65;2.25;;;;;;;;;;5035127;28;20498;-62
2021/03/28 07:52:35;;;;;;;17.25;2.78;;;;;;;;;;5013719;28;20025;-63
2021/03/28 07:55:15;;;;;;;14.48;2.75;;;;;;;;;;5027332;28;20148;-62
2021/03/28 07:57:55;;;;;;;14.35;2.35;;;;;;;;;;5029190;28;20017;-63
2021/03/28 08:00:39;;;;;;;10.27;2.13;;;;;;;;;;5030757;28;20020;-62
2021/03/28 08:03:04;;;;;;;7.28;1.95;;;;;;;;;;5034786;28;20021;-62
2021/03/28 08:05:50;;;;;;;9.55;1.55;;;;;;;;;;5039689;28;20037;-62
2021/03/28 08:08:50;;;;;;;4.75;1.48;;;;;;;;;;5027386;28;20436;-62
2021/03/28 08:11:15;;;;;;;;;;;;;;;;;;5006225;28;20030;-62
2021/03/28 08:13:52;;;;;;;5.68;1.75;;;;;;;;;;5027925;28;19912;-63
2021/03/28 08:16:27;;;;;;;3.95;1.38;;;;;;;;;;5030716;28;20025;-63
2021/03/28 08:18:59;;;;;;;3.67;1.15;;;;;;;;;;5040592;28;20022;-62
2021/03/28 08:21:42;;;;;;;11.13;2.58;;;;;;;;;;5039188;28;20033;-62
2021/03/28 08:24:10;;;;;;;11.57;2.85;;;;;;;;;;5038736;28;20032;-62
2021/03/28 08:26:54;;;;;;;1.63;1.05;;;;;;;;;;5056039;22;20033;-88
2021/03/28 08:29:41;;;;;;;6.30;2.17;;;;;;;;;;5025779;28;20040;-88
2021/03/28 08:32:20;;;;;;;2.20;1.40;;;;;;;;;;5025332;28;20030;-88
2021/03/28 08:35:06;;;;;;;8.93;2.33;;;;;;;;;;5023603;28;20023;-88
2021/03/28 08:37:53;;;;;;;6.47;1.70;;;;;;;;;;5048249;28;20496;-87
2021/03/28 08:40:39;;;;;;;9.02;2.33;;;;;;;;;;5026358;28;20029;-88
2021/03/28 08:43:31;;;;;;;8.07;2.17;;;;;;;;;;5027454;28;20455;-87
2021/03/28 08:46:15;;;;;;;29.55;2.13;;;;;;;;;;5025514;28;20021;-88
2021/03/28 08:48:40;;;;;;;8.43;2.00;;;;;;;;;;5024402;28;20030;-88
2021/03/28 08:51:23;;;;;;;10.77;2.28;;;;;;;;;;5034936;28;20525;-88
2021/03/28 08:53:51;;;;;;;9.43;2.08;;;;;;;;;;5022345;28;20029;-87
2021/03/28 08:56:49;;;;;;;;;;;;;;;;;;;;;
2021/03/28 08:59:27;;;;;;;9.40;1.65;;;;;;;;;;5018751;28;20543;-88
2021/03/28 09:02:01;;;;;;;8.10;1.52;;;;;;;;;;5022320;28;20385;-86
2021/03/28 09:04:39;;;;;;;11.63;2.33;;;;;;;;;;5031927;28;20033;-87
2021/03/28 09:07:07;;;;;;;9.73;1.95;;;;;;;;;;5040946;28;20393;-87
2021/03/28 09:09:41;;;;;;;9.82;2.10;;;;;;;;;;5049300;28;20036;-86
2021/03/28 09:12:31;;;;;;;11.25;2.38;;;;;;;;;;5034015;28;20079;-88
2021/03/28 09:15:18;;;;;;;3.67;1.50;;;;;;;;;;5047189;28;20017;-87
2021/03/28 09:18:09;;;;;;;7.88;2.55;;;;;;;;;;5060799;28;20025;-87
2021/03/28 09:20:34;;;;;;;10.07;2.00;;;;;;;;;;5013831;28;20091;-88
2021/03/28 09:23:11;;;;;;;8.80;1.90;;;;;;;;;;5025471;28;20026;-87
2021/03/28 09:25:55;;;;;;;8.02;1.25;;;;;;;;;;5030896;28;20263;-90
2021/03/28 09:28:39;;;;;;;9.95;2.33;;;;;;;;;;5047130;28;20032;-90
2021/03/28 09:31:23;;;;;;;9.82;2.47;;;;;;;;;;5033355;28;20032;-88
2021/03/28 09:34:00;;;;;;;7.47;2.08;;;;;;;;;;5032143;28;20064;-88
2021/03/28 09:36:44;;;;;;;11.95;2.92;;;;;;;;;;5031726;28;20034;-88
2021/03/28 09:39:13;;;;;;;6.65;1.58;;;;;;;;;;5042113;28;20018;-88
2021/03/28 09:41:47;;;;;;;7.18;1.63;;;;;;;;;;5031484;28;20033;-86
2021/03/28 09:44:16;;;;;;;13.18;4.25;;;;;;;;;;5031722;28;20029;-88
2021/03/28 09:46:44;;;;;;;11.15;2.33;;;;;;;;;;5032208;28;20079;-89
2021/03/28 09:49:17;;;;;;;14.38;2.40;;;;;;;;;;5047983;28;20082;-90
2021/03/28 09:51:56;;;;;;;8.20;2.00;;;;;;;;;;5043356;28;20646;-89
2021/03/28 09:54:24;;;;;;;11.77;2.20;;;;;;;;;;5031375;28;20029;-88
2021/03/28 09:57:11;;;;;;;16.20;2.28;;;;;;;;;;5030682;28;20061;-89
2021/03/28 09:59:55;;;;;;;12.15;2.75;;;;;;;;;;5031745;28;20481;-88
2021/03/28 10:02:39;;;;;;;9.88;2.00;;;;;;;;;;5032178;28;20033;-86
2021/03/28 10:05:08;;;;;;;16.75;1.92;;;;;;;;;;5030920;28;20048;-88
2021/03/28 10:07:50;;;;;;;5.35;1.65;;;;;;;;;;5031719;28;20017;-84
2021/03/28 10:10:31;;;;;;;18.38;2.03;;;;;;;;;;5029679;28;20493;-88
2021/03/28 10:13:05;;;;;;;13.20;1.80;;;;;;;;;;5030794;28;20037;-87
2021/03/28 10:15:32;;;;;;;12.60;2.33;;;;;;;;;;5029605;28;20021;-86
2021/03/28 10:18:16;;;;;;;4.53;1.15;;;;;;;;;;5035651;28;20096;-88
2021/03/28 10:20:54;;;;;;;8.75;1.85;;;;;;;;;;5029376;28;20077;-86
2021/03/28 10:23:31;;;;;;;9.38;1.60;;;;;;;;;;5030066;28;20060;-85
2021/03/28 10:25:59;;;;;;;1.40;0.50;;;;;;;;;;5033499;28;20098;-86
2021/03/28 10:28:27;;;;;;;6.45;1.65;;;;;;;;;;5025315;28;20032;-87
2021/03/28 10:31:00;;;;;;;11.27;2.03;;;;;;;;;;5030806;28;20048;-87
2021/03/28 10:33:47;;;;;;;17.88;1.80;;;;;;;;;;5030937;28;20025;-86
2021/03/28 10:36:23;;;;;;;9.52;1.63;;;;;;;;;;5030904;28;20017;-87
2021/03/28 10:38:48;;;;;;;6.80;1.52;;;;;;;;;;5026948;28;20022;-85
2021/03/28 10:41:19;;;;;;;4.00;1.00;;;;;;;;;;5032567;28;20018;-89
2021/03/28 10:43:55;;;;;;;11.40;1.88;;;;;;;;;;5031586;28;20605;-87
2021/03/28 10:46:41;;;;;;;6.97;1.52;;;;;;;;;;5032640;28;20036;-87
2021/03/28 10:49:24;;;;;;;12.85;1.95;;;;;;;;;;5021293;28;20047;-88
2021/03/28 10:52:02;;;;;;;5.30;1.73;;;;;;;;;;5059257;28;20021;-89
2021/03/28 10:54:44;;;;;;;15.20;1.42;;;;;;;;;;5051003;28;20021;-88
2021/03/28 10:57:38;;;;;;;;;;;;;;;;;;;;;
2021/03/28 11:00:22;;;;;;;9.93;1.30;;;;;;;;;;5044365;28;20045;-89
2021/03/28 11:03:06;;;;;;;14.52;1.75;;;;;;;;;;5029394;28;20026;-88
2021/03/28 11:05:42;;;;;;;6.50;1.02;;;;;;;;;;5032187;28;20030;-88
2021/03/28 11:08:19;;;;;;;6.82;0.80;;;;;;;;;;5042487;28;20037;-89
2021/03/28 11:10:59;;;;;;;5.32;1.02;;;;;;;;;;5033775;28;20021;-88
2021/03/28 11:13:43;;;;;;;8.18;1.73;;;;;;;;;;5040687;28;20124;-89
2021/03/28 11:16:15;;;;;;;4.07;1.48;;;;;;;;;;5033625;28;20653;-89
2021/03/28 11:18:59;;;;;;;3.38;1.77;;;;;;;;;;5039276;28;20021;-90
2021/03/28 11:21:34;;;;;;;7.82;2.03;;;;;;;;;;5031137;28;20020;-90
2021/03/28 11:24:03;;;;;;;9.32;1.63;;;;;;;;;;5029905;28;20452;-89
2021/03/28 11:26:34;;;;;;;7.22;1.67;;;;;;;;;;5032605;28;20100;-87
2021/03/28 11:29:08;;;;;;;16.08;1.55;;;;;;;;;;5027117;28;20087;-88
2021/03/28 11:31:55;;;;;;;7.78;1.27;;;;;;;;;;5029368;28;20075;-89
2021/03/28 11:34:26;;;;;;;9.30;1.40;;;;;;;;;;5027578;28;20018;-88
2021/03/28 11:36:57;;;;;;;12.02;2.00;;;;;;;;;;5029580;28;20429;-87
2021/03/28 11:39:28;;;;;;;9.98;1.70;;;;;;;;;;5027591;28;20071;-85
2021/03/28 11:41:55;;;;;;;6.97;1.08;;;;;;;;;;5030034;28;20028;-88
2021/03/28 11:44:30;;;;;;;9.65;1.73;;;;;;;;;;5029545;28;20021;-89
2021/03/28 11:47:10;;;;;;;9.63;1.55;;;;;;;;;;5028033;28;20047;-89
2021/03/28 11:49:53;;;;;;;10.00;2.50;;;;;;;;;;5024008;28;20032;-88
2021/03/28 11:52:33;;;;;;;12.35;1.63;;;;;;;;;;5027772;28;20111;-89
2021/03/28 11:55:00;;;;;;;11.43;1.67;;;;;;;;;;5033343;28;20492;-86
2021/03/28 11:57:28;;;;;;;7.65;2.00;;;;;;;;;;5031539;28;20044;-88
2021/03/28 11:59:55;;;;;;;14.70;3.60;;;;;;;;;;5030876;28;20460;-89
2021/03/28 12:02:22;;;;;;;7.03;0.82;;;;;;;;;;5028056;28;20105;-89
2021/03/28 12:04:50;;;;;;;8.02;1.50;;;;;;;;;;5028882;28;20065;-89
2021/03/28 12:07:36;;;;;;;9.90;1.95;;;;;;;;;;5029962;28;20016;-88
2021/03/28 12:10:04;;;;;;;14.07;2.22;;;;;;;;;;5030286;28;20067;-90
2021/03/28 12:12:29;;;;;;;12.45;2.70;;;;;;;;;;5029868;28;20068;-89
2021/03/28 12:15:16;;;;;;;6.03;1.05;;;;;;;;;;5029377;28;20033;-89
2021/03/28 12:17:58;;;;;;;14.07;1.88;;;;;;;;;;5028757;28;20043;-85
2021/03/28 12:20:32;;;;;;;4.82;1.30;;;;;;;;;;5043753;28;20025;-90
2021/03/28 12:23:00;;;;;;;7.60;2.03;;;;;;;;;;5040907;28;20036;-90
2021/03/28 12:25:31;;;;;;;7.15;0.95;;;;;;;;;;5049283;28;20096;-89
2021/03/28 12:27:56;;;;;;;10.35;2.20;;;;;;;;;;5042354;28;20034;-88
2021/03/28 12:30:30;;;;;;;11.55;2.15;;;;;;;;;;5041203;28;20017;-89
2021/03/28 12:33:00;;;;;;;12.20;2.15;;;;;;;;;;5021437;28;20048;-88
2021/03/28 12:35:32;;;;;;;12.85;3.20;;;;;;;;;;5026924;28;20028;-86
2021/03/28 12:37:58;;;;;;;10.32;2.35;;;;;;;;;;5019150;28;20458;-84
2021/03/28 12:40:26;;;;;;;7.80;2.00;;;;;;;;;;5020666;28;20029;-89
2021/03/28 12:43:04;;;;;;;6.97;1.85;;;;;;;;;;5015711;28;20712;-89
2021/03/28 12:45:31;;;;;;;11.10;1.67;;;;;;;;;;5029699;28;20063;-91
2021/03/28 12:48:00;;;;;;;11.50;2.58;;;;;;;;;;5044914;28;20532;-90
2021/03/28 12:50:29;;;;;;;11.07;1.80;;;;;;;;;;5040193;28;20029;-88
2021/03/28 12:53:01;;;;;;;4.65;1.40;;;;;;;;;;5024252;28;20053;-91
2021/03/28 12:55:29;;;;;;;5.60;1.63;;;;;;;;;;5043452;28;20064;-86
2021/03/28 12:57:54;;;;;;;12.65;2.72;;;;;;;;;;5039562;28;20022;-90
2021/03/28 13:00:44;;;;;;;5.35;1.27;;;;;;;;;;5022883;28;20614;-89
2021/03/28 13:03:29;;;;;;;15.65;1.70;;;;;;;;;;5035953;28;20021;-89
2021/03/28 13:06:13;;;;;;;15.48;2.03;;;;;;;;;;5024401;28;20167;-89
2021/03/28 13:08:41;;;;;;;9.85;2.03;;;;;;;;;;5039291;28;20025;-86
2021/03/28 13:11:07;;;;;;;7.28;1.40;;;;;;;;;;5034892;28;20037;-86
2021/03/28 13:13:59;;;;;;;13.15;1.77;;;;;;;;;;5042103;28;20033;-89
2021/03/28 13:16:33;;;;;;;15.27;1.45;;;;;;;;;;5045932;28;20503;-91
2021/03/28 13:18:59;;;;;;;8.75;1.73;;;;;;;;;;5039606;28;20032;-87
2021/03/28 13:21:31;;;;;;;8.90;2.50;;;;;;;;;;5036678;28;20093;-88
2021/03/28 13:24:11;;;;;;;5.30;1.30;;;;;;;;;;5037466;28;20029;-86
2021/03/28 13:27:04;;;;;;;5.80;1.20;;;;;;;;;;5040719;28;20017;-89
2021/03/28 13:29:40;;;;;;;4.63;1.17;;;;;;;;;;5056069;28;20029;-90
2021/03/28 13:32:45;;;;;;;4.10;1.35;;;;;;;;;;5036262;28;20021;-91
2021/03/28 13:35:32;;;;;;;3.45;1.45;;;;;;;;;;5037958;28;20103;-88
2021/03/28 13:37:58;;;;;;;12.52;1.77;;;;;;;;;;5034100;28;20088;-88
2021/03/28 13:40:45;;;;;;;5.72;1.83;;;;;;;;;;5045403;28;20026;-89
2021/03/28 13:43:28;;;;;;;12.50;1.92;;;;;;;;;;5047959;28;20049;-86
2021/03/28 13:46:04;;;;;;;6.97;1.80;;;;;;;;;;5038612;28;20028;-90
2021/03/28 13:48:29;;;;;;;8.35;1.70;;;;;;;;;;5048063;28;20029;-90
2021/03/28 13:51:17;;;;;;;10.38;2.05;;;;;;;;;;5023298;28;20465;-87
2021/03/28 13:53:57;;;;;;;8.93;1.58;;;;;;;;;;5032214;28;20029;-88
2021/03/28 13:56:42;;;;;;;13.73;1.52;;;;;;;;;;5037146;28;20025;-90
2021/03/28 13:59:19;;;;;;;10.57;1.58;;;;;;;;;;5046544;28;20040;-87
2021/03/28 14:01:46;;;;;;;9.25;1.58;;;;;;;;;;5036546;28;20013;-88
2021/03/28 14:04:24;;;;;;;7.25;1.20;;;;;;;;;;5030058;28;20026;-90
2021/03/28 14:07:09;;;;;;;9.73;1.55;;;;;;;;;;5041713;28;20051;-88
2021/03/28 14:09:50;;;;;;;;;;;;;;;;;;;;;
2021/03/28 14:12:30;;;;;;;6.32;0.90;;;;;;;;;;5011677;28;20491;-86
2021/03/28 14:15:25;;;;;;;7.32;1.60;;;;;;;;;;5031265;28;20022;-89
2021/03/28 14:18:08;;;;;;;9.13;1.50;;;;;;;;;;4975150;28;20554;-90
2021/03/28 14:21:12;;;;;;;10.48;1.52;;;;;;;;;;5029874;28;20092;-89
2021/03/28 14:23:46;;;;;;;8.18;1.50;;;;;;;;;;4982324;28;20022;-88
2021/03/28 14:26:17;;;;;;;4.28;1.23;;;;;;;;;;4992352;28;20052;-87
2021/03/28 14:28:45;;;;;;;11.88;2.05;;;;;;;;;;4987195;28;20121;-87
2021/03/28 14:31:11;;;;;;;11.57;1.73;;;;;;;;;;4968118;28;20023;-85
2021/03/28 14:33:44;;;;;;;4.90;1.30;;;;;;;;;;4988205;28;20026;-86
2021/03/28 14:39:15;;;;;;;9.13;3.40;;;;;;;;;;5047983;22;20024;-61
2021/03/28 14:41:50;;;;;;;9.77;1.50;;;;;;;;;;5049772;28;20021;-64
2021/03/28 14:44:15;;;;;;;7.82;1.45;;;;;;;;;;5051711;28;20554;-65
2021/03/28 14:47:03;;;;;;;3.73;1.13;;;;;;;;;;5049896;28;20029;-66
2021/03/28 14:49:28;;;;;;;13.50;1.98;;;;;;;;;;5041953;28;20593;-66
2021/03/28 14:51:53;;;;;;;4.07;1.33;;;;;;;;;;5065558;28;20166;-65
2021/03/28 14:54:22;;;;;;;10.27;2.28;;;;;;;;;;5055136;28;20023;-65
2021/03/28 14:56:59;;;;;;;9.85;1.70;;;;;;;;;;5057044;28;20043;-65
2021/03/28 14:59:44;;;;;;;11.27;1.58;;;;;;;;;;5047703;28;20021;-64
2021/03/28 15:02:28;;;;;;;8.27;2.17;;;;;;;;;;5044681;28;20049;-63
2021/03/28 15:05:12;;;;;;;9.48;1.70;;;;;;;;;;5045462;28;20020;-63
2021/03/28 15:07:59;;;;;;;6.88;1.50;;;;;;;;;;5050149;28;20307;-64
2021/03/28 15:10:33;;;;;;;9.13;2.15;;;;;;;;;;5049954;28;20036;-64
2021/03/28 15:13:04;;;;;;;9.27;1.85;;;;;;;;;;5051049;28;20021;-65
2021/03/28 15:15:33;;;;;;;5.00;1.20;;;;;;;;;;5050090;28;20423;-63
2021/03/28 15:17:58;;;;;;;12.48;1.50;;;;;;;;;;5049194;28;20029;-64
2021/03/28 15:20:35;;;;;;;12.82;2.10;;;;;;;;;;5049877;28;20017;-65
2021/03/28 15:23:12;;;;;;;9.13;2.15;;;;;;;;;;5043767;28;20023;-65
2021/03/28 15:26:04;;;;;;;7.72;1.02;;;;;;;;;;5050358;28;20021;-64
2021/03/28 15:28:31;;;;;;;14.00;2.60;;;;;;;;;;5040872;28;20037;-66
2021/03/28 15:31:18;;;;;;;7.15;1.33;;;;;;;;;;5050149;28;20102;-66
2021/03/28 15:33:55;;;;;;;10.50;2.38;;;;;;;;;;5049560;28;20074;-64
2021/03/28 15:36:44;;;;;;;8.27;1.90;;;;;;;;;;5048845;28;20074;-64